sensor_id;sensor_type;location;lat;lon;timestamp;P1;durP1;ratioP1;P2;durP2;ratioP2
51738;SDS011;37815;52.692;6.226;2022-07-30T00:03:23;4.60;;;2.70;;
51738;SDS011;37815;52.692;6.226;2022-07-30T00:08:23;4.53;;;2.80;;
51738;SDS011;37815;52.692;6.226;2022-07-30T00:13:24;4.95;;;2.80;;
51738;SDS011;37815;52.692;6.226;2022-07-30T00:18:25;3.08;;;2.60;;
51738;SDS011;37815;52.692;6.226;2022-07-30T00:23:26;4.78;;;2.70;;
51738;SDS011;37815;52.692;6.226;2022-07-30T00:28:27;4.38;;;2.60;;
51738;SDS011;37815;52.692;6.226;2022-07-30T00:33:27;4.65;;;2.50;;
51738;SDS011;37815;52.692;6.226;2022-07-30T00:38:28;3.38;;;2.58;;
51738;SDS011;37815;52.692;6.226;2022-07-30T00:43:29;4.45;;;2.75;;
51738;SDS011;37815;52.692;6.226;2022-07-30T00:48:29;3.45;;;2.75;;
51738;SDS011;37815;52.692;6.226;2022-07-30T00:53:30;5.22;;;3.17;;
51738;SDS011;37815;52.692;6.226;2022-07-30T00:58:31;4.68;;;2.80;;
51738;SDS011;37815;52.692;6.226;2022-07-30T01:03:32;3.17;;;2.75;;
51738;SDS011;37815;52.692;6.226;2022-07-30T01:08:33;3.80;;;2.63;;
51738;SDS011;37815;52.692;6.226;2022-07-30T01:13:34;3.08;;;2.58;;
51738;SDS011;37815;52.692;6.226;2022-07-30T01:18:34;4.88;;;2.63;;
51738;SDS011;37815;52.692;6.226;2022-07-30T01:23:55;5.40;;;2.72;;
51738;SDS011;37815;52.692;6.226;2022-07-30T01:29:05;3.50;;;2.70;;
51738;SDS011;37815;52.692;6.226;2022-07-30T01:34:08;3.55;;;2.80;;
51738;SDS011;37815;52.692;6.226;2022-07-30T01:39:12;4.53;;;2.78;;
51738;SDS011;37815;52.692;6.226;2022-07-30T01:44:16;3.67;;;2.67;;
51738;SDS011;37815;52.692;6.226;2022-07-30T01:49:18;4.05;;;2.90;;
51738;SDS011;37815;52.692;6.226;2022-07-30T01:54:20;5.38;;;3.08;;
51738;SDS011;37815;52.692;6.226;2022-07-30T01:59:23;4.40;;;2.67;;
51738;SDS011;37815;52.692;6.226;2022-07-30T02:04:25;3.83;;;2.50;;
51738;SDS011;37815;52.692;6.226;2022-07-30T02:09:33;6.75;;;3.10;;
51738;SDS011;37815;52.692;6.226;2022-07-30T02:14:44;5.20;;;2.97;;
51738;SDS011;37815;52.692;6.226;2022-07-30T02:19:50;4.82;;;3.03;;
51738;SDS011;37815;52.692;6.226;2022-07-30T02:24:54;5.18;;;2.92;;
51738;SDS011;37815;52.692;6.226;2022-07-30T02:29:58;4.10;;;2.60;;
51738;SDS011;37815;52.692;6.226;2022-07-30T02:35:02;3.88;;;2.58;;
51738;SDS011;37815;52.692;6.226;2022-07-30T02:40:09;3.33;;;2.50;;
51738;SDS011;37815;52.692;6.226;2022-07-30T02:45:15;4.63;;;2.40;;
51738;SDS011;37815;52.692;6.226;2022-07-30T02:50:17;3.55;;;2.67;;
51738;SDS011;37815;52.692;6.226;2022-07-30T02:55:18;4.63;;;2.95;;
51738;SDS011;37815;52.692;6.226;2022-07-30T03:00:20;3.50;;;2.50;;
51738;SDS011;37815;52.692;6.226;2022-07-30T03:05:24;3.25;;;2.70;;
51738;SDS011;37815;52.692;6.226;2022-07-30T03:10:26;3.65;;;2.70;;
51738;SDS011;37815;52.692;6.226;2022-07-30T03:15:27;2.92;;;2.50;;
51738;SDS011;37815;52.692;6.226;2022-07-30T03:20:30;3.50;;;2.40;;
51738;SDS011;37815;52.692;6.226;2022-07-30T03:25:31;2.97;;;2.38;;
51738;SDS011;37815;52.692;6.226;2022-07-30T03:30:34;3.75;;;2.45;;
51738;SDS011;37815;52.692;6.226;2022-07-30T03:35:35;3.35;;;2.20;;
51738;SDS011;37815;52.692;6.226;2022-07-30T03:40:37;2.50;;;1.90;;
51738;SDS011;37815;52.692;6.226;2022-07-30T03:45:40;5.18;;;2.30;;
51738;SDS011;37815;52.692;6.226;2022-07-30T03:50:43;4.60;;;2.33;;
51738;SDS011;37815;52.692;6.226;2022-07-30T03:55:45;4.60;;;2.38;;
51738;SDS011;37815;52.692;6.226;2022-07-30T04:00:47;2.80;;;2.13;;
51738;SDS011;37815;52.692;6.226;2022-07-30T04:05:48;3.00;;;2.15;;
51738;SDS011;37815;52.692;6.226;2022-07-30T04:10:49;2.53;;;2.00;;
51738;SDS011;37815;52.692;6.226;2022-07-30T04:15:55;2.75;;;2.13;;
51738;SDS011;37815;52.692;6.226;2022-07-30T04:21:00;2.65;;;2.03;;
51738;SDS011;37815;52.692;6.226;2022-07-30T04:26:04;3.78;;;2.00;;
51738;SDS011;37815;52.692;6.226;2022-07-30T04:31:06;2.38;;;2.00;;
51738;SDS011;37815;52.692;6.226;2022-07-30T04:36:07;3.30;;;2.00;;
51738;SDS011;37815;52.692;6.226;2022-07-30T04:41:08;3.50;;;2.03;;
51738;SDS011;37815;52.692;6.226;2022-07-30T04:46:08;5.45;;;1.80;;
51738;SDS011;37815;52.692;6.226;2022-07-30T04:51:17;2.28;;;1.65;;
51738;SDS011;37815;52.692;6.226;2022-07-30T04:56:22;3.28;;;2.30;;
51738;SDS011;37815;52.692;6.226;2022-07-30T05:01:26;4.68;;;1.92;;
51738;SDS011;37815;52.692;6.226;2022-07-30T05:06:32;4.23;;;2.30;;
51738;SDS011;37815;52.692;6.226;2022-07-30T05:11:34;2.75;;;2.00;;
51738;SDS011;37815;52.692;6.226;2022-07-30T05:16:34;3.45;;;1.98;;
51738;SDS011;37815;52.692;6.226;2022-07-30T05:21:35;3.58;;;2.00;;
51738;SDS011;37815;52.692;6.226;2022-07-30T05:26:36;4.28;;;2.13;;
51738;SDS011;37815;52.692;6.226;2022-07-30T05:31:37;3.72;;;2.15;;
51738;SDS011;37815;52.692;6.226;2022-07-30T05:36:38;3.15;;;2.00;;
51738;SDS011;37815;52.692;6.226;2022-07-30T05:41:38;3.58;;;2.00;;
51738;SDS011;37815;52.692;6.226;2022-07-30T05:46:39;3.83;;;2.10;;
51738;SDS011;37815;52.692;6.226;2022-07-30T05:51:40;4.40;;;2.22;;
51738;SDS011;37815;52.692;6.226;2022-07-30T05:56:41;3.53;;;2.20;;
51738;SDS011;37815;52.692;6.226;2022-07-30T06:01:42;5.03;;;2.33;;
51738;SDS011;37815;52.692;6.226;2022-07-30T06:06:43;4.47;;;2.00;;
51738;SDS011;37815;52.692;6.226;2022-07-30T06:11:43;4.45;;;2.20;;
51738;SDS011;37815;52.692;6.226;2022-07-30T06:16:44;3.30;;;2.30;;
51738;SDS011;37815;52.692;6.226;2022-07-30T06:21:45;4.40;;;2.15;;
51738;SDS011;37815;52.692;6.226;2022-07-30T06:26:45;2.42;;;2.20;;
51738;SDS011;37815;52.692;6.226;2022-07-30T06:31:46;3.67;;;2.50;;
51738;SDS011;37815;52.692;6.226;2022-07-30T06:36:47;2.60;;;2.13;;
51738;SDS011;37815;52.692;6.226;2022-07-30T06:41:48;3.47;;;2.10;;
51738;SDS011;37815;52.692;6.226;2022-07-30T06:46:49;3.47;;;2.53;;
51738;SDS011;37815;52.692;6.226;2022-07-30T06:51:49;4.50;;;2.67;;
51738;SDS011;37815;52.692;6.226;2022-07-30T06:56:51;2.95;;;2.40;;
51738;SDS011;37815;52.692;6.226;2022-07-30T07:01:52;4.53;;;2.40;;
51738;SDS011;37815;52.692;6.226;2022-07-30T07:06:53;4.38;;;2.40;;
51738;SDS011;37815;52.692;6.226;2022-07-30T07:11:54;3.72;;;2.53;;
51738;SDS011;37815;52.692;6.226;2022-07-30T07:16:54;5.15;;;2.70;;
51738;SDS011;37815;52.692;6.226;2022-07-30T07:21:55;5.03;;;2.40;;
51738;SDS011;37815;52.692;6.226;2022-07-30T07:26:56;4.63;;;2.72;;
51738;SDS011;37815;52.692;6.226;2022-07-30T07:31:56;10.30;;;5.25;;
51738;SDS011;37815;52.692;6.226;2022-07-30T07:36:57;8.52;;;4.30;;
51738;SDS011;37815;52.692;6.226;2022-07-30T07:41:58;5.78;;;3.83;;
51738;SDS011;37815;52.692;6.226;2022-07-30T07:46:58;5.25;;;3.22;;
51738;SDS011;37815;52.692;6.226;2022-07-30T07:51:59;10.80;;;3.40;;
51738;SDS011;37815;52.692;6.226;2022-07-30T07:56:59;6.60;;;3.72;;
51738;SDS011;37815;52.692;6.226;2022-07-30T08:02:00;7.18;;;4.47;;
51738;SDS011;37815;52.692;6.226;2022-07-30T08:07:01;6.32;;;3.80;;
51738;SDS011;37815;52.692;6.226;2022-07-30T08:12:02;6.53;;;3.40;;
51738;SDS011;37815;52.692;6.226;2022-07-30T08:17:03;8.82;;;3.53;;
51738;SDS011;37815;52.692;6.226;2022-07-30T08:22:04;4.53;;;3.17;;
51738;SDS011;37815;52.692;6.226;2022-07-30T08:27:05;5.82;;;2.70;;
51738;SDS011;37815;52.692;6.226;2022-07-30T08:32:05;6.53;;;3.03;;
51738;SDS011;37815;52.692;6.226;2022-07-30T08:37:06;5.93;;;2.85;;
51738;SDS011;37815;52.692;6.226;2022-07-30T08:42:07;6.28;;;3.17;;
51738;SDS011;37815;52.692;6.226;2022-07-30T08:47:08;4.13;;;2.95;;
51738;SDS011;37815;52.692;6.226;2022-07-30T08:52:10;5.00;;;3.25;;
51738;SDS011;37815;52.692;6.226;2022-07-30T08:57:11;8.05;;;4.47;;
51738;SDS011;37815;52.692;6.226;2022-07-30T09:02:12;6.30;;;2.75;;
51738;SDS011;37815;52.692;6.226;2022-07-30T09:07:13;5.18;;;2.83;;
51738;SDS011;37815;52.692;6.226;2022-07-30T09:12:33;4.07;;;2.92;;
51738;SDS011;37815;52.692;6.226;2022-07-30T09:22:55;7.82;;;4.18;;
51738;SDS011;37815;52.692;6.226;2022-07-30T09:27:57;6.45;;;3.10;;
51738;SDS011;37815;52.692;6.226;2022-07-30T09:32:58;5.90;;;3.42;;
51738;SDS011;37815;52.692;6.226;2022-07-30T09:37:59;4.68;;;3.00;;
51738;SDS011;37815;52.692;6.226;2022-07-30T09:43:01;6.00;;;3.10;;
51738;SDS011;37815;52.692;6.226;2022-07-30T09:48:04;7.00;;;2.97;;
51738;SDS011;37815;52.692;6.226;2022-07-30T09:53:20;5.50;;;2.85;;
51738;SDS011;37815;52.692;6.226;2022-07-30T09:58:22;4.80;;;3.08;;
51738;SDS011;37815;52.692;6.226;2022-07-30T10:03:23;4.93;;;2.70;;
51738;SDS011;37815;52.692;6.226;2022-07-30T10:08:41;4.95;;;2.72;;
51738;SDS011;37815;52.692;6.226;2022-07-30T10:13:43;5.05;;;2.50;;
51738;SDS011;37815;52.692;6.226;2022-07-30T10:18:47;5.28;;;2.83;;
51738;SDS011;37815;52.692;6.226;2022-07-30T10:23:48;4.50;;;2.70;;
51738;SDS011;37815;52.692;6.226;2022-07-30T10:28:50;3.88;;;2.50;;
51738;SDS011;37815;52.692;6.226;2022-07-30T10:33:52;4.78;;;2.30;;
51738;SDS011;37815;52.692;6.226;2022-07-30T10:38:53;7.22;;;2.75;;
51738;SDS011;37815;52.692;6.226;2022-07-30T10:44:14;6.13;;;2.63;;
51738;SDS011;37815;52.692;6.226;2022-07-30T10:49:27;3.47;;;2.55;;
51738;SDS011;37815;52.692;6.226;2022-07-30T10:54:34;5.05;;;2.50;;
51738;SDS011;37815;52.692;6.226;2022-07-30T11:10:39;6.03;;;2.53;;
51738;SDS011;37815;52.692;6.226;2022-07-30T11:15:53;4.82;;;2.30;;
51738;SDS011;37815;52.692;6.226;2022-07-30T11:21:20;5.70;;;2.33;;
51738;SDS011;37815;52.692;6.226;2022-07-30T11:31:45;5.72;;;2.10;;
51738;SDS011;37815;52.692;6.226;2022-07-30T11:37:01;3.10;;;1.88;;
51738;SDS011;37815;52.692;6.226;2022-07-30T11:47:26;9.00;;;2.38;;
51738;SDS011;37815;52.692;6.226;2022-07-30T11:52:27;6.45;;;2.10;;
51738;SDS011;37815;52.692;6.226;2022-07-30T11:57:41;3.28;;;2.10;;
51738;SDS011;37815;52.692;6.226;2022-07-30T12:02:42;4.38;;;2.45;;
51738;SDS011;37815;52.692;6.226;2022-07-30T12:07:43;5.18;;;1.85;;
51738;SDS011;37815;52.692;6.226;2022-07-30T12:12:44;3.65;;;1.65;;
51738;SDS011;37815;52.692;6.226;2022-07-30T12:17:45;3.58;;;1.80;;
51738;SDS011;37815;52.692;6.226;2022-07-30T12:22:46;3.33;;;1.60;;
51738;SDS011;37815;52.692;6.226;2022-07-30T12:27:47;3.63;;;2.17;;
51738;SDS011;37815;52.692;6.226;2022-07-30T12:32:49;1.88;;;1.50;;
51738;SDS011;37815;52.692;6.226;2022-07-30T12:38:02;3.25;;;1.40;;
51738;SDS011;37815;52.692;6.226;2022-07-30T12:43:03;3.35;;;1.30;;
51738;SDS011;37815;52.692;6.226;2022-07-30T12:48:08;3.28;;;1.73;;
51738;SDS011;37815;52.692;6.226;2022-07-30T12:53:10;3.08;;;1.20;;
51738;SDS011;37815;52.692;6.226;2022-07-30T12:58:11;2.40;;;1.33;;
51738;SDS011;37815;52.692;6.226;2022-07-30T13:03:21;3.60;;;1.30;;
51738;SDS011;37815;52.692;6.226;2022-07-30T13:13:47;2.05;;;1.20;;
51738;SDS011;37815;52.692;6.226;2022-07-30T13:18:49;2.67;;;1.40;;
51738;SDS011;37815;52.692;6.226;2022-07-30T13:23:50;2.25;;;1.45;;
51738;SDS011;37815;52.692;6.226;2022-07-30T13:28:50;2.13;;;1.48;;
51738;SDS011;37815;52.692;6.226;2022-07-30T13:33:51;1.90;;;1.40;;
51738;SDS011;37815;52.692;6.226;2022-07-30T13:38:52;3.90;;;1.50;;
51738;SDS011;37815;52.692;6.226;2022-07-30T13:43:53;2.08;;;1.45;;
51738;SDS011;37815;52.692;6.226;2022-07-30T13:48:54;2.65;;;1.50;;
51738;SDS011;37815;52.692;6.226;2022-07-30T13:53:55;3.22;;;1.50;;
51738;SDS011;37815;52.692;6.226;2022-07-30T13:58:55;1.20;;;1.10;;
51738;SDS011;37815;52.692;6.226;2022-07-30T14:03:56;2.65;;;1.40;;
51738;SDS011;37815;52.692;6.226;2022-07-30T14:08:57;5.57;;;1.60;;
51738;SDS011;37815;52.692;6.226;2022-07-30T14:13:57;5.30;;;1.30;;
51738;SDS011;37815;52.692;6.226;2022-07-30T14:18:58;4.30;;;1.63;;
51738;SDS011;37815;52.692;6.226;2022-07-30T14:23:59;4.00;;;1.85;;
51738;SDS011;37815;52.692;6.226;2022-07-30T14:29:00;5.45;;;1.80;;
51738;SDS011;37815;52.692;6.226;2022-07-30T14:34:00;3.85;;;1.30;;
51738;SDS011;37815;52.692;6.226;2022-07-30T14:39:02;4.55;;;1.30;;
51738;SDS011;37815;52.692;6.226;2022-07-30T14:44:03;2.55;;;1.55;;
51738;SDS011;37815;52.692;6.226;2022-07-30T14:49:04;4.05;;;1.58;;
51738;SDS011;37815;52.692;6.226;2022-07-30T14:54:05;2.38;;;1.55;;
51738;SDS011;37815;52.692;6.226;2022-07-30T14:59:06;3.53;;;1.35;;
51738;SDS011;37815;52.692;6.226;2022-07-30T15:04:07;3.15;;;1.75;;
51738;SDS011;37815;52.692;6.226;2022-07-30T15:09:09;3.97;;;1.90;;
51738;SDS011;37815;52.692;6.226;2022-07-30T15:14:10;2.95;;;1.40;;
51738;SDS011;37815;52.692;6.226;2022-07-30T15:19:11;2.95;;;1.38;;
51738;SDS011;37815;52.692;6.226;2022-07-30T15:24:12;3.70;;;1.30;;
51738;SDS011;37815;52.692;6.226;2022-07-30T15:29:13;2.17;;;1.75;;
51738;SDS011;37815;52.692;6.226;2022-07-30T15:34:14;2.78;;;1.38;;
51738;SDS011;37815;52.692;6.226;2022-07-30T15:39:15;3.35;;;1.38;;
51738;SDS011;37815;52.692;6.226;2022-07-30T15:44:16;2.03;;;1.50;;
51738;SDS011;37815;52.692;6.226;2022-07-30T15:49:17;2.60;;;1.30;;
51738;SDS011;37815;52.692;6.226;2022-07-30T15:54:18;2.25;;;1.30;;
51738;SDS011;37815;52.692;6.226;2022-07-30T15:59:21;7.63;;;1.58;;
51738;SDS011;37815;52.692;6.226;2022-07-30T16:04:22;10.75;;;5.97;;
51738;SDS011;37815;52.692;6.226;2022-07-30T16:09:23;5.60;;;4.60;;
51738;SDS011;37815;52.692;6.226;2022-07-30T16:14:24;7.07;;;4.03;;
51738;SDS011;37815;52.692;6.226;2022-07-30T16:19:25;3.53;;;3.17;;
51738;SDS011;37815;52.692;6.226;2022-07-30T16:24:27;4.00;;;2.20;;
51738;SDS011;37815;52.692;6.226;2022-07-30T16:29:28;8.43;;;4.28;;
51738;SDS011;37815;52.692;6.226;2022-07-30T16:34:28;4.60;;;2.65;;
51738;SDS011;37815;52.692;6.226;2022-07-30T16:39:29;5.47;;;4.38;;
51738;SDS011;37815;52.692;6.226;2022-07-30T16:44:30;4.45;;;1.80;;
51738;SDS011;37815;52.692;6.226;2022-07-30T16:49:33;3.30;;;1.83;;
51738;SDS011;37815;52.692;6.226;2022-07-30T16:54:33;3.75;;;1.77;;
51738;SDS011;37815;52.692;6.226;2022-07-30T16:59:34;2.65;;;1.80;;
51738;SDS011;37815;52.692;6.226;2022-07-30T17:04:36;2.30;;;1.25;;
51738;SDS011;37815;52.692;6.226;2022-07-30T17:09:37;2.20;;;1.60;;
51738;SDS011;37815;52.692;6.226;2022-07-30T17:14:39;2.13;;;1.45;;
51738;SDS011;37815;52.692;6.226;2022-07-30T17:19:41;2.53;;;1.40;;
51738;SDS011;37815;52.692;6.226;2022-07-30T17:24:42;1.50;;;1.40;;
51738;SDS011;37815;52.692;6.226;2022-07-30T17:29:42;2.08;;;1.33;;
51738;SDS011;37815;52.692;6.226;2022-07-30T17:34:43;4.78;;;1.70;;
51738;SDS011;37815;52.692;6.226;2022-07-30T17:39:44;4.38;;;1.50;;
51738;SDS011;37815;52.692;6.226;2022-07-30T17:44:45;4.50;;;1.63;;
51738;SDS011;37815;52.692;6.226;2022-07-30T17:49:46;4.10;;;1.67;;
51738;SDS011;37815;52.692;6.226;2022-07-30T17:54:46;3.45;;;1.40;;
51738;SDS011;37815;52.692;6.226;2022-07-30T17:59:47;17.77;;;1.58;;
51738;SDS011;37815;52.692;6.226;2022-07-30T18:04:48;2.15;;;1.40;;
51738;SDS011;37815;52.692;6.226;2022-07-30T18:09:48;3.13;;;1.23;;
51738;SDS011;37815;52.692;6.226;2022-07-30T18:14:49;2.05;;;1.50;;
51738;SDS011;37815;52.692;6.226;2022-07-30T18:19:50;1.58;;;1.45;;
51738;SDS011;37815;52.692;6.226;2022-07-30T18:24:51;1.77;;;1.58;;
51738;SDS011;37815;52.692;6.226;2022-07-30T18:29:52;3.33;;;1.50;;
51738;SDS011;37815;52.692;6.226;2022-07-30T18:34:53;1.52;;;1.33;;
51738;SDS011;37815;52.692;6.226;2022-07-30T18:39:53;3.03;;;1.58;;
51738;SDS011;37815;52.692;6.226;2022-07-30T18:44:54;2.17;;;1.40;;
51738;SDS011;37815;52.692;6.226;2022-07-30T18:49:55;3.03;;;1.48;;
51738;SDS011;37815;52.692;6.226;2022-07-30T18:54:56;3.67;;;1.40;;
51738;SDS011;37815;52.692;6.226;2022-07-30T18:59:56;2.15;;;1.55;;
51738;SDS011;37815;52.692;6.226;2022-07-30T19:04:57;2.78;;;1.27;;
51738;SDS011;37815;52.692;6.226;2022-07-30T19:09:58;1.60;;;1.33;;
51738;SDS011;37815;52.692;6.226;2022-07-30T19:14:59;1.85;;;1.30;;
51738;SDS011;37815;52.692;6.226;2022-07-30T19:20:00;1.30;;;1.20;;
51738;SDS011;37815;52.692;6.226;2022-07-30T19:25:01;1.75;;;1.40;;
51738;SDS011;37815;52.692;6.226;2022-07-30T19:30:02;1.52;;;1.35;;
51738;SDS011;37815;52.692;6.226;2022-07-30T19:35:03;2.15;;;1.25;;
51738;SDS011;37815;52.692;6.226;2022-07-30T19:40:04;2.25;;;1.58;;
51738;SDS011;37815;52.692;6.226;2022-07-30T19:45:06;1.55;;;1.40;;
51738;SDS011;37815;52.692;6.226;2022-07-30T19:50:07;2.47;;;1.30;;
51738;SDS011;37815;52.692;6.226;2022-07-30T19:55:08;1.58;;;1.20;;
51738;SDS011;37815;52.692;6.226;2022-07-30T20:00:09;1.67;;;1.35;;
51738;SDS011;37815;52.692;6.226;2022-07-30T20:05:10;1.95;;;1.20;;
51738;SDS011;37815;52.692;6.226;2022-07-30T20:10:11;1.42;;;1.23;;
51738;SDS011;37815;52.692;6.226;2022-07-30T20:15:12;2.13;;;1.20;;
51738;SDS011;37815;52.692;6.226;2022-07-30T20:20:13;1.92;;;1.40;;
51738;SDS011;37815;52.692;6.226;2022-07-30T20:25:14;1.30;;;1.20;;
51738;SDS011;37815;52.692;6.226;2022-07-30T20:30:15;1.33;;;1.23;;
51738;SDS011;37815;52.692;6.226;2022-07-30T20:35:16;2.25;;;1.42;;
51738;SDS011;37815;52.692;6.226;2022-07-30T20:40:17;2.95;;;1.25;;
51738;SDS011;37815;52.692;6.226;2022-07-30T20:45:18;2.88;;;1.33;;
51738;SDS011;37815;52.692;6.226;2022-07-30T20:50:18;2.03;;;1.38;;
51738;SDS011;37815;52.692;6.226;2022-07-30T20:55:19;2.13;;;1.50;;
51738;SDS011;37815;52.692;6.226;2022-07-30T21:00:20;2.38;;;1.35;;
51738;SDS011;37815;52.692;6.226;2022-07-30T21:05:21;2.00;;;1.48;;
51738;SDS011;37815;52.692;6.226;2022-07-30T21:10:22;1.65;;;1.55;;
51738;SDS011;37815;52.692;6.226;2022-07-30T21:15:23;2.53;;;1.50;;
51738;SDS011;37815;52.692;6.226;2022-07-30T21:20:24;4.20;;;1.50;;
51738;SDS011;37815;52.692;6.226;2022-07-30T21:25:24;1.63;;;1.52;;
51738;SDS011;37815;52.692;6.226;2022-07-30T21:30:25;3.45;;;1.70;;
51738;SDS011;37815;52.692;6.226;2022-07-30T21:35:26;1.88;;;1.60;;
51738;SDS011;37815;52.692;6.226;2022-07-30T21:40:27;1.90;;;1.40;;
51738;SDS011;37815;52.692;6.226;2022-07-30T21:45:28;2.50;;;1.80;;
51738;SDS011;37815;52.692;6.226;2022-07-30T21:50:29;1.65;;;1.50;;
51738;SDS011;37815;52.692;6.226;2022-07-30T21:55:29;3.15;;;1.70;;
51738;SDS011;37815;52.692;6.226;2022-07-30T22:00:58;1.98;;;1.73;;
51738;SDS011;37815;52.692;6.226;2022-07-30T22:06:03;2.58;;;1.85;;
51738;SDS011;37815;52.692;6.226;2022-07-30T22:11:04;2.60;;;1.77;;
51738;SDS011;37815;52.692;6.226;2022-07-30T22:16:04;2.10;;;1.60;;
51738;SDS011;37815;52.692;6.226;2022-07-30T22:21:05;2.90;;;2.08;;
51738;SDS011;37815;52.692;6.226;2022-07-30T22:26:06;2.10;;;1.60;;
51738;SDS011;37815;52.692;6.226;2022-07-30T22:31:07;2.17;;;1.60;;
51738;SDS011;37815;52.692;6.226;2022-07-30T22:36:08;2.85;;;1.85;;
51738;SDS011;37815;52.692;6.226;2022-07-30T22:41:09;2.35;;;1.40;;
51738;SDS011;37815;52.692;6.226;2022-07-30T22:46:10;2.72;;;2.00;;
51738;SDS011;37815;52.692;6.226;2022-07-30T22:51:11;3.15;;;1.50;;
51738;SDS011;37815;52.692;6.226;2022-07-30T22:56:12;2.97;;;1.90;;
51738;SDS011;37815;52.692;6.226;2022-07-30T23:01:13;2.00;;;1.63;;
51738;SDS011;37815;52.692;6.226;2022-07-30T23:06:14;1.80;;;1.70;;
51738;SDS011;37815;52.692;6.226;2022-07-30T23:11:15;2.17;;;1.73;;
51738;SDS011;37815;52.692;6.226;2022-07-30T23:16:15;1.90;;;1.50;;
51738;SDS011;37815;52.692;6.226;2022-07-30T23:21:16;1.55;;;1.40;;
51738;SDS011;37815;52.692;6.226;2022-07-30T23:26:17;1.63;;;1.40;;
51738;SDS011;37815;52.692;6.226;2022-07-30T23:31:18;1.95;;;1.65;;
51738;SDS011;37815;52.692;6.226;2022-07-30T23:36:18;2.10;;;1.45;;
51738;SDS011;37815;52.692;6.226;2022-07-30T23:41:19;1.95;;;1.60;;
51738;SDS011;37815;52.692;6.226;2022-07-30T23:46:20;3.33;;;1.98;;
51738;SDS011;37815;52.692;6.226;2022-07-30T23:51:20;3.22;;;1.90;;
51738;SDS011;37815;52.692;6.226;2022-07-30T23:56:21;3.28;;;1.70;;
